createdAt,value
2023-01-01T00:02:21.028Z,135.05
2023-01-01T00:04:49.600Z,126.63
2023-01-01T00:07:16.830Z,117.18
2023-01-01T00:10:02.627Z,121.60
2023-01-01T00:12:30.095Z,102.03
2023-01-01T00:14:57.214Z,109.40
2023-01-01T00:17:24.460Z,118.88
2023-01-01T00:19:51.523Z,116.75
2023-01-01T00:25:06.513Z,133.32
2023-01-01T00:27:33.993Z,154.98
2023-01-01T00:30:01.217Z,199.38
2023-01-01T00:32:28.525Z,197.43
2023-01-01T00:34:55.569Z,183.90
2023-01-01T00:37:22.723Z,168.13
2023-01-01T00:39:49.962Z,171.20
2023-01-01T00:42:17.232Z,162.80
2023-01-01T00:44:44.363Z,163.40
2023-01-01T00:47:11.592Z,166.77
2023-01-01T00:49:38.752Z,180.70
2023-01-01T00:52:05.873Z,177.10
2023-01-01T00:54:33.062Z,167.20
2023-01-01T00:57:00.214Z,172.00
2023-01-01T00:59:29.078Z,180.30
2023-01-01T01:01:56.564Z,168.27
2023-01-01T01:04:24.006Z,166.05
2023-01-01T01:06:51.138Z,168.90
2023-01-01T01:09:18.240Z,178.18
2023-01-01T01:11:45.238Z,167.95
2023-01-01T01:14:12.384Z,145.80
2023-01-01T01:16:39.594Z,106.40
2023-01-01T01:19:06.864Z,104.68
2023-01-01T01:21:34.913Z,90.15
2023-01-01T01:24:03.025Z,75.13
2023-01-01T01:26:31.349Z,60.30
2023-01-01T01:28:59.047Z,49.08
2023-01-01T01:31:27.998Z,36.65
2023-01-01T01:33:55.379Z,33.38
2023-01-01T01:36:22.770Z,28.48
2023-01-01T01:38:50.239Z,25.80
2023-01-01T01:41:27.862Z,22.15
2023-01-01T01:43:57.260Z,24.48
2023-01-01T01:46:30.584Z,21.25
2023-01-01T01:49:00.523Z,16.80
2023-01-01T01:51:32.951Z,15.18
2023-01-01T01:54:05.721Z,16.90
2023-01-01T01:56:38.386Z,12.35
2023-01-01T01:59:05.943Z,14.02
2023-01-01T02:01:33.982Z,15.85
2023-01-01T02:04:02.368Z,12.10
2023-01-01T02:06:31.040Z,15.68
2023-01-01T02:08:59.482Z,11.52
2023-01-01T02:11:26.668Z,12.85
2023-01-01T02:13:54.604Z,9.82
2023-01-01T02:16:22.110Z,13.15
2023-01-01T02:19:02.458Z,12.40
2023-01-01T02:21:40.735Z,12.98
2023-01-01T02:24:10.591Z,8.82
2023-01-01T02:26:40.848Z,8.95
2023-01-01T02:29:20.136Z,9.88
2023-01-01T02:31:57.884Z,9.63
2023-01-01T02:34:28.807Z,15.18
2023-01-01T02:36:57.719Z,12.68
2023-01-01T02:39:28.095Z,31.88
2023-01-01T02:41:56.937Z,26.95
2023-01-01T02:44:26.406Z,24.50
2023-01-01T02:46:53.627Z,34.30
2023-01-01T02:49:20.842Z,35.60
2023-01-01T02:52:00.162Z,37.03
2023-01-01T02:54:27.315Z,39.75
2023-01-01T02:57:17.380Z,44.42
2023-01-01T03:00:28.451Z,46.10
2023-01-01T03:03:06.619Z,46.63
2023-01-01T03:06:14.718Z,40.67
2023-01-01T03:08:55.378Z,52.25
2023-01-01T03:11:24.290Z,45.70
2023-01-01T03:14:14.549Z,48.60
2023-01-01T03:16:41.759Z,47.30
2023-01-01T03:19:23.590Z,52.00
2023-01-01T03:21:52.375Z,43.92
2023-01-01T03:24:25.660Z,47.72
2023-01-01T03:26:54.907Z,51.60
2023-01-01T03:29:23.994Z,38.47
2023-01-01T03:31:53.474Z,38.60
2023-01-01T03:34:23.371Z,41.00
2023-01-01T03:36:53.116Z,37.28
2023-01-01T03:39:29.787Z,31.60
2023-01-01T03:42:02.810Z,24.40
2023-01-01T03:44:34.568Z,24.70
2023-01-01T03:47:04.627Z,15.75
2023-01-01T03:49:31.840Z,19.27
2023-01-01T03:52:19.114Z,16.85
2023-01-01T03:54:59.599Z,18.20
2023-01-01T03:57:47.029Z,19.10
2023-01-01T04:00:22.504Z,18.15
2023-01-01T04:03:07.473Z,18.77
2023-01-01T04:05:39.333Z,25.75
2023-01-01T04:08:06.644Z,23.08
2023-01-01T04:10:34.854Z,26.63
2023-01-01T04:13:03.435Z,28.80
2023-01-01T04:15:30.944Z,20.85
2023-01-01T04:17:58.077Z,15.77
2023-01-01T04:20:25.913Z,23.00
2023-01-01T04:22:55.914Z,19.73
2023-01-01T04:25:23.152Z,22.48
2023-01-01T04:27:50.235Z,25.58
2023-01-01T04:30:17.673Z,33.78
2023-01-01T04:32:44.769Z,32.15
2023-01-01T04:35:13.097Z,29.50
2023-01-01T04:37:43.596Z,38.58
2023-01-01T04:40:13.689Z,36.75
2023-01-01T04:42:40.936Z,35.35
2023-01-01T04:45:08.449Z,35.63
2023-01-01T04:47:35.681Z,32.63
2023-01-01T04:50:02.799Z,32.63
2023-01-01T04:52:29.921Z,28.02
2023-01-01T04:54:57.663Z,27.02
2023-01-01T04:57:25.825Z,27.98
2023-01-01T04:59:52.911Z,27.40
2023-01-01T05:02:20.104Z,30.73
2023-01-01T05:04:47.393Z,28.52
2023-01-01T05:07:14.539Z,28.85
2023-01-01T05:09:41.713Z,23.27
2023-01-01T05:12:08.954Z,23.48
2023-01-01T05:14:36.103Z,22.38
2023-01-01T05:17:03.275Z,17.70
2023-01-01T05:19:30.370Z,24.40
2023-01-01T05:21:57.467Z,21.88
2023-01-01T05:24:24.534Z,21.38
2023-01-01T05:26:51.837Z,22.92
2023-01-01T05:29:19.893Z,20.75
2023-01-01T05:31:47.288Z,22.90
2023-01-01T05:34:14.835Z,24.05
2023-01-01T05:36:42.042Z,22.50
2023-01-01T05:39:10.225Z,24.80
2023-01-01T05:41:37.456Z,15.50
2023-01-01T05:44:05.680Z,19.88
2023-01-01T05:46:34.448Z,18.27
2023-01-01T05:49:01.591Z,17.35
2023-01-01T05:51:29.596Z,14.88
2023-01-01T05:53:57.026Z,13.95
2023-01-01T05:56:24.310Z,13.43
2023-01-01T05:58:51.735Z,13.35
2023-01-01T06:01:20.345Z,12.60
2023-01-01T06:03:49.200Z,16.52
2023-01-01T06:06:20.629Z,15.02
2023-01-01T06:08:56.588Z,11.98
2023-01-01T06:11:23.851Z,17.52
2023-01-01T06:13:54.737Z,22.17
2023-01-01T06:16:22.159Z,8.90
2023-01-01T06:18:49.345Z,9.05
2023-01-01T06:21:17.636Z,14.02
2023-01-01T06:23:45.048Z,18.63
2023-01-01T06:26:13.652Z,20.65
2023-01-01T06:28:40.887Z,22.80
2023-01-01T06:31:09.124Z,20.08
2023-01-01T06:33:36.717Z,21.75
2023-01-01T06:36:04.943Z,23.58
2023-01-01T06:38:32.975Z,24.48
2023-01-01T06:41:01.493Z,26.13
2023-01-01T06:43:29.853Z,24.40
2023-01-01T06:46:03.293Z,27.33
2023-01-01T06:48:31.563Z,27.58
2023-01-01T06:50:59.013Z,23.08
2023-01-01T06:53:26.655Z,27.90
2023-01-01T06:55:57.349Z,23.67
2023-01-01T06:58:24.719Z,20.85
2023-01-01T07:00:51.807Z,23.83
2023-01-01T07:03:18.940Z,24.17
2023-01-01T07:05:46.045Z,22.42
2023-01-01T07:08:13.174Z,21.73
2023-01-01T07:10:40.366Z,22.08
2023-01-01T07:13:07.563Z,21.58
2023-01-01T07:15:34.912Z,19.30
2023-01-01T07:18:02.171Z,21.48
2023-01-01T07:20:29.264Z,24.80
2023-01-01T07:22:56.438Z,20.33
2023-01-01T07:25:24.116Z,27.88
2023-01-01T07:27:51.217Z,21.13
2023-01-01T07:30:18.462Z,18.75
2023-01-01T07:32:45.602Z,19.00
2023-01-01T07:35:12.743Z,20.60
2023-01-01T07:37:39.872Z,20.45
2023-01-01T07:40:08.514Z,16.05
2023-01-01T07:42:35.703Z,15.52
2023-01-01T07:45:02.805Z,30.70
2023-01-01T07:47:29.942Z,21.35
2023-01-01T07:49:57.089Z,18.45
2023-01-01T07:52:24.298Z,24.88
2023-01-01T07:54:51.348Z,24.75
2023-01-01T07:57:18.514Z,24.80
2023-01-01T07:59:45.718Z,23.52
2023-01-01T08:02:13.271Z,27.00
2023-01-01T08:04:40.450Z,31.13
2023-01-01T08:07:07.575Z,28.38
2023-01-01T08:09:34.673Z,33.38
2023-01-01T08:12:02.289Z,26.85
2023-01-01T08:14:30.552Z,32.35
2023-01-01T08:16:58.254Z,31.05
2023-01-01T08:19:25.330Z,28.55
2023-01-01T08:21:52.490Z,26.90
2023-01-01T08:24:19.641Z,28.52
2023-01-01T08:26:49.435Z,25.00
2023-01-01T08:29:17.069Z,25.58
2023-01-01T08:31:44.381Z,28.10
2023-01-01T08:34:11.516Z,30.67
2023-01-01T08:36:40.896Z,31.45
2023-01-01T08:39:08.583Z,35.85
2023-01-01T08:41:36.526Z,25.88
2023-01-01T08:44:03.827Z,30.67
2023-01-01T08:46:31.370Z,31.15
2023-01-01T08:48:58.576Z,29.10
2023-01-01T08:51:25.817Z,26.90
2023-01-01T08:53:53.169Z,26.13
2023-01-01T08:56:20.810Z,27.02
2023-01-01T08:58:48.176Z,24.38
2023-01-01T09:01:15.598Z,28.13
2023-01-01T09:03:44.239Z,27.42
2023-01-01T09:06:11.416Z,24.88
2023-01-01T09:08:38.570Z,27.38
2023-01-01T09:11:05.731Z,27.10
2023-01-01T09:13:34.405Z,25.80
2023-01-01T09:16:01.698Z,27.23
2023-01-01T09:18:32.555Z,26.70
2023-01-01T09:20:59.697Z,23.65
2023-01-01T09:23:26.879Z,23.70
2023-01-01T09:25:54.084Z,22.17
2023-01-01T09:28:25.592Z,24.63
2023-01-01T09:30:53.121Z,28.33
2023-01-01T09:33:20.635Z,25.02
2023-01-01T09:35:47.725Z,25.58
2023-01-01T09:38:14.925Z,24.08
2023-01-01T09:40:50.930Z,25.02
2023-01-01T09:43:18.637Z,26.10
2023-01-01T09:46:00.686Z,22.92
2023-01-01T09:48:29.736Z,23.30
2023-01-01T09:50:57.320Z,17.73
2023-01-01T09:53:27.319Z,21.23
2023-01-01T09:55:57.093Z,18.73
2023-01-01T09:58:28.350Z,11.95
2023-01-01T10:00:57.816Z,10.20
2023-01-01T10:04:03.626Z,14.10
2023-01-01T10:06:32.405Z,19.02
2023-01-01T10:09:09.970Z,18.35
2023-01-01T10:11:45.393Z,15.15
2023-01-01T10:14:24.314Z,12.52
2023-01-01T10:16:54.888Z,16.05
2023-01-01T10:19:35.098Z,17.27
2023-01-01T10:22:04.836Z,16.95
2023-01-01T10:24:31.875Z,11.85
2023-01-01T10:27:00.117Z,14.55
2023-01-01T10:29:47.020Z,15.13
2023-01-01T10:32:34.329Z,12.63
2023-01-01T10:35:02.844Z,13.80
2023-01-01T10:37:32.126Z,14.45
2023-01-01T10:39:59.292Z,13.48
2023-01-01T10:42:26.506Z,13.73
2023-01-01T10:44:54.249Z,15.73
2023-01-01T10:47:25.079Z,15.15
2023-01-01T10:49:57.145Z,15.65
2023-01-01T10:52:26.815Z,11.40
2023-01-01T10:54:54.229Z,14.60
2023-01-01T10:57:41.646Z,12.82
2023-01-01T11:00:28.528Z,12.95
2023-01-01T11:03:14.276Z,12.48
2023-01-01T11:06:00.331Z,10.77
2023-01-01T11:08:28.444Z,10.05
2023-01-01T11:10:57.953Z,12.68
2023-01-01T11:13:25.269Z,11.45
2023-01-01T11:15:52.373Z,14.25
2023-01-01T11:18:36.376Z,10.85
2023-01-01T11:21:04.694Z,16.10
2023-01-01T11:23:34.295Z,11.23
2023-01-01T11:26:02.771Z,11.32
2023-01-01T11:28:31.979Z,10.73
2023-01-01T11:31:01.330Z,10.20
2023-01-01T11:33:29.474Z,11.70
2023-01-01T11:35:56.983Z,9.13
2023-01-01T11:38:29.843Z,12.27
2023-01-01T11:41:03.050Z,11.95
2023-01-01T11:43:31.906Z,9.40
2023-01-01T11:45:59.784Z,10.77
2023-01-01T11:48:31.641Z,13.15
2023-01-01T11:51:03.078Z,10.63
2023-01-01T11:53:32.312Z,14.38
2023-01-01T11:56:02.317Z,12.15
2023-01-01T11:58:41.923Z,13.85
2023-01-01T12:01:14.666Z,9.57
2023-01-01T12:03:41.844Z,11.52
2023-01-01T12:06:28.248Z,12.77
2023-01-01T12:09:00.510Z,11.52
2023-01-01T12:11:27.660Z,15.65
2023-01-01T12:14:02.531Z,12.20
2023-01-01T12:16:32.406Z,10.80
2023-01-01T12:19:06.945Z,8.52
2023-01-01T12:21:36.110Z,14.50
2023-01-01T12:24:04.821Z,9.23
2023-01-01T12:26:43.676Z,13.25
2023-01-01T12:29:13.881Z,13.18
2023-01-01T12:31:49.650Z,15.13
2023-01-01T12:34:18.212Z,9.73
2023-01-01T12:36:45.286Z,13.68
2023-01-01T12:39:15.373Z,11.50
2023-01-01T12:41:54.851Z,12.55
2023-01-01T12:44:22.055Z,11.95
2023-01-01T12:47:09.422Z,14.10
2023-01-01T12:49:37.028Z,11.77
2023-01-01T12:52:14.871Z,9.80
2023-01-01T12:55:00.754Z,11.40
2023-01-01T12:57:35.010Z,14.77
2023-01-01T13:00:03.302Z,12.35
2023-01-01T13:02:33.492Z,13.60
2023-01-01T13:05:03.496Z,17.02
2023-01-01T13:07:32.127Z,17.83
2023-01-01T13:10:04.018Z,15.80
2023-01-01T13:12:33.145Z,10.70
2023-01-01T13:15:00.265Z,12.07
2023-01-01T13:17:29.164Z,15.75
2023-01-01T13:19:59.307Z,13.68
2023-01-01T13:22:26.366Z,11.25
2023-01-01T13:25:18.095Z,12.38
2023-01-01T13:27:57.354Z,11.82
2023-01-01T13:30:41.709Z,13.38
2023-01-01T13:33:27.298Z,11.57
2023-01-01T13:36:10.050Z,15.35
2023-01-01T13:38:46.319Z,11.60
2023-01-01T13:41:32.079Z,13.02
2023-01-01T13:44:03.376Z,12.80
2023-01-01T13:46:33.567Z,13.95
2023-01-01T13:49:16.494Z,13.30
2023-01-01T13:52:06.553Z,12.90
2023-01-01T13:54:35.579Z,13.68
2023-01-01T13:57:14.830Z,17.85
2023-01-01T13:59:54.062Z,15.55
2023-01-01T14:02:24.352Z,14.75
2023-01-01T14:04:56.889Z,14.88
2023-01-01T14:10:17.571Z,16.90
2023-01-01T14:12:44.912Z,13.82
2023-01-01T14:15:16.161Z,13.43
2023-01-01T14:17:44.151Z,15.80
2023-01-01T14:20:15.455Z,20.73
2023-01-01T14:22:44.338Z,23.17
2023-01-01T14:25:15.935Z,23.60
2023-01-01T14:27:44.380Z,20.10
2023-01-01T14:30:18.736Z,21.50
2023-01-01T14:32:45.899Z,23.75
2023-01-01T14:35:15.189Z,19.98
2023-01-01T14:37:42.461Z,20.05
2023-01-01T14:40:17.393Z,24.00
2023-01-01T14:42:45.844Z,19.13
2023-01-01T14:45:19.116Z,19.88
2023-01-01T14:47:50.244Z,22.02
2023-01-01T14:50:20.521Z,21.33
2023-01-01T14:52:51.501Z,36.42
2023-01-01T14:55:19.284Z,27.55
2023-01-01T14:57:48.082Z,24.20
2023-01-01T15:00:21.916Z,23.95
2023-01-01T15:02:49.306Z,22.25
2023-01-01T15:05:22.853Z,22.73
2023-01-01T15:08:00.073Z,26.38
2023-01-01T15:10:32.480Z,31.15
2023-01-01T15:12:59.744Z,31.08
2023-01-01T15:15:40.872Z,25.98
2023-01-01T15:18:28.006Z,25.75
2023-01-01T15:20:56.006Z,25.17
2023-01-01T15:23:23.202Z,25.48
2023-01-01T15:25:50.520Z,22.90
2023-01-01T15:28:20.354Z,26.08
2023-01-01T15:30:54.679Z,26.85
2023-01-01T15:33:22.264Z,27.65
2023-01-01T15:35:50.565Z,25.60
2023-01-01T15:38:23.159Z,29.30
2023-01-01T15:40:53.467Z,30.08
2023-01-01T15:43:31.155Z,31.98
2023-01-01T15:46:12.210Z,45.92
2023-01-01T15:48:47.266Z,42.95
2023-01-01T15:51:15.848Z,45.50
2023-01-01T15:53:49.408Z,44.90
2023-01-01T15:56:17.081Z,43.58
2023-01-01T15:58:48.445Z,42.25
2023-01-01T16:01:19.957Z,38.78
2023-01-01T16:03:47.941Z,38.67
2023-01-01T16:06:16.435Z,41.53
2023-01-01T16:08:43.839Z,38.63
2023-01-01T16:11:10.960Z,44.58
2023-01-01T16:13:38.245Z,37.85
2023-01-01T16:16:07.874Z,44.00
2023-01-01T16:18:36.380Z,43.90
2023-01-01T16:21:04.498Z,44.13
2023-01-01T16:23:32.883Z,44.83
2023-01-01T16:26:00.096Z,50.15
2023-01-01T16:28:27.256Z,48.38
2023-01-01T16:30:55.179Z,51.45
2023-01-01T16:33:25.870Z,49.47
2023-01-01T16:35:52.994Z,49.67
2023-01-01T16:38:20.057Z,51.95
2023-01-01T16:40:47.160Z,57.33
2023-01-01T16:43:18.437Z,49.92
2023-01-01T16:45:45.767Z,48.40
2023-01-01T16:48:13.055Z,52.20
2023-01-01T16:50:40.711Z,70.70
2023-01-01T16:53:07.862Z,50.67
2023-01-01T16:55:35.040Z,54.58
2023-01-01T16:58:38.641Z,60.35
2023-01-01T17:00:50.346Z,57.72
2023-01-01T17:03:17.532Z,55.92
2023-01-01T17:05:45.116Z,60.38
2023-01-01T17:08:12.477Z,71.30
2023-01-01T17:10:39.533Z,74.10
2023-01-01T17:13:07.910Z,80.57
2023-01-01T17:15:35.127Z,72.72
2023-01-01T17:18:02.376Z,78.93
2023-01-01T17:20:29.534Z,71.97
2023-01-01T17:22:56.608Z,81.90
2023-01-01T17:25:23.742Z,71.10
2023-01-01T17:27:50.920Z,70.60
2023-01-01T17:30:18.278Z,73.05
2023-01-01T17:32:45.422Z,70.05
2023-01-01T17:35:12.641Z,60.28
2023-01-01T17:37:39.620Z,65.25
2023-01-01T17:40:07.307Z,66.63
2023-01-01T17:42:35.010Z,55.47
2023-01-01T17:45:02.297Z,57.83
2023-01-01T17:47:32.755Z,53.05
2023-01-01T17:50:00.630Z,59.78
2023-01-01T17:52:27.971Z,57.22
2023-01-01T17:54:55.116Z,56.75
2023-01-01T17:57:22.278Z,56.03
2023-01-01T17:59:49.516Z,61.97
2023-01-01T18:02:16.989Z,67.63
2023-01-01T18:04:45.339Z,62.70
2023-01-01T18:07:12.525Z,66.68
2023-01-01T18:09:40.643Z,78.63
2023-01-01T18:12:07.968Z,73.40
2023-01-01T18:14:35.077Z,62.78
2023-01-01T18:17:02.309Z,63.88
2023-01-01T18:19:29.653Z,71.60
2023-01-01T18:21:56.837Z,64.72
2023-01-01T18:24:24.000Z,63.88
2023-01-01T18:26:51.287Z,66.57
2023-01-01T18:29:18.568Z,59.65
2023-01-01T18:31:45.790Z,57.45
2023-01-01T18:34:13.493Z,61.22
2023-01-01T18:36:41.109Z,53.88
2023-01-01T18:39:17.393Z,53.40
2023-01-01T18:42:03.185Z,47.47
2023-01-01T18:44:33.810Z,45.88
2023-01-01T18:47:06.678Z,41.33
2023-01-01T18:49:34.396Z,44.00
2023-01-01T18:52:19.992Z,37.38
2023-01-01T18:54:47.154Z,39.25
2023-01-01T18:57:28.951Z,46.30
2023-01-01T18:59:58.976Z,44.00
2023-01-01T19:02:46.021Z,45.15
2023-01-01T19:05:27.539Z,45.45
2023-01-01T19:08:06.874Z,45.88
2023-01-01T19:10:54.257Z,47.88
2023-01-01T19:13:23.553Z,45.10
2023-01-01T19:16:09.074Z,35.90
2023-01-01T19:18:38.147Z,38.88
2023-01-01T19:21:08.343Z,34.85
2023-01-01T19:23:38.119Z,37.25
2023-01-01T19:26:06.364Z,36.42
2023-01-01T19:28:34.891Z,37.00
2023-01-01T19:31:02.838Z,39.88
2023-01-01T19:33:31.809Z,37.17
2023-01-01T19:35:59.094Z,33.65
2023-01-01T19:38:26.233Z,39.97
2023-01-01T19:40:53.733Z,37.65
2023-01-01T19:43:21.610Z,40.00
2023-01-01T19:45:48.840Z,36.97
2023-01-01T19:48:16.058Z,36.60
2023-01-01T19:50:43.228Z,36.60
2023-01-01T19:53:10.250Z,46.83
2023-01-01T19:55:37.871Z,38.95
2023-01-01T19:58:05.992Z,35.60
2023-01-01T20:00:33.252Z,38.85
2023-01-01T20:03:25.907Z,35.65
2023-01-01T20:05:47.498Z,38.10
2023-01-01T20:08:14.532Z,39.95
2023-01-01T20:10:41.949Z,39.72
2023-01-01T20:13:09.733Z,35.83
2023-01-01T20:15:44.838Z,39.58
2023-01-01T20:18:14.104Z,38.17
2023-01-01T20:20:59.875Z,44.60
2023-01-01T20:23:27.126Z,65.15
2023-01-01T20:25:54.178Z,68.90
2023-01-01T20:28:39.979Z,73.60
2023-01-01T20:31:07.274Z,69.53
2023-01-01T20:33:34.432Z,76.68
2023-01-01T20:36:20.166Z,86.78
2023-01-01T20:38:47.455Z,80.38
2023-01-01T20:41:26.720Z,91.10
2023-01-01T20:43:55.299Z,85.78
2023-01-01T20:46:23.269Z,87.53
2023-01-01T20:48:50.422Z,89.30
2023-01-01T20:51:17.512Z,82.78
2023-01-01T20:53:47.468Z,74.55
2023-01-01T20:56:14.520Z,78.93
2023-01-01T20:58:48.084Z,75.10
2023-01-01T21:01:17.387Z,65.30
2023-01-01T21:03:44.572Z,65.32
2023-01-01T21:06:11.740Z,62.90
2023-01-01T21:08:39.074Z,58.13
2023-01-01T21:11:06.371Z,55.08
2023-01-01T21:13:33.408Z,50.65
2023-01-01T21:16:11.529Z,48.58
2023-01-01T21:18:38.636Z,56.72
2023-01-01T21:21:09.611Z,48.45
2023-01-01T21:23:36.900Z,44.00
2023-01-01T21:26:08.276Z,46.97
2023-01-01T21:28:35.384Z,46.13
2023-01-01T21:31:06.877Z,39.85
2023-01-01T21:33:35.487Z,37.22
2023-01-01T21:36:05.466Z,39.28
2023-01-01T21:38:32.829Z,41.30
2023-01-01T21:41:00.494Z,38.55
2023-01-01T21:43:44.524Z,38.40
2023-01-01T21:46:11.863Z,36.50
2023-01-01T21:48:55.854Z,33.17
2023-01-01T21:51:27.143Z,35.22
2023-01-01T21:54:14.489Z,32.40
2023-01-01T21:56:43.426Z,28.58
2023-01-01T21:59:28.043Z,31.17
2023-01-01T22:02:02.231Z,30.73
2023-01-01T22:04:34.403Z,28.92
2023-01-01T22:07:09.613Z,28.48
2023-01-01T22:09:48.282Z,26.27
2023-01-01T22:12:18.235Z,26.52
2023-01-01T22:14:49.474Z,28.38
2023-01-01T22:17:22.540Z,28.15
2023-01-01T22:19:50.171Z,28.02
2023-01-01T22:22:18.751Z,25.95
2023-01-01T22:24:56.939Z,23.95
2023-01-01T22:27:36.076Z,21.50
2023-01-01T22:30:09.472Z,20.92
2023-01-01T22:32:37.077Z,21.27
2023-01-01T22:35:26.228Z,19.63
2023-01-01T22:37:55.921Z,23.73
2023-01-01T22:40:29.444Z,19.95
2023-01-01T22:43:16.783Z,21.60
2023-01-01T22:45:47.645Z,20.35
2023-01-01T22:48:21.781Z,21.33
2023-01-01T22:50:49.707Z,19.88
2023-01-01T22:53:17.786Z,20.45
2023-01-01T22:55:46.176Z,26.98
2023-01-01T22:58:13.335Z,26.67
2023-01-01T23:00:40.462Z,31.30
2023-01-01T23:03:07.646Z,36.35
2023-01-01T23:05:34.895Z,32.40
2023-01-01T23:08:02.072Z,29.73
2023-01-01T23:10:29.206Z,25.25
2023-01-01T23:12:56.313Z,24.55
2023-01-01T23:15:42.077Z,27.63
2023-01-01T23:18:10.051Z,25.30
2023-01-01T23:20:37.235Z,23.65
2023-01-01T23:23:04.324Z,26.38
2023-01-01T23:25:31.531Z,24.48
2023-01-01T23:27:58.594Z,20.52
2023-01-01T23:30:25.980Z,28.20
2023-01-01T23:32:53.067Z,23.08
2023-01-01T23:35:20.239Z,23.55
2023-01-01T23:37:47.382Z,21.40
2023-01-01T23:40:14.498Z,21.42
2023-01-01T23:42:41.613Z,22.38
2023-01-01T23:45:08.985Z,25.10
2023-01-01T23:47:36.163Z,27.25
2023-01-01T23:50:03.903Z,28.38
2023-01-01T23:52:31.091Z,33.10
2023-01-01T23:54:58.207Z,27.40
2023-01-01T23:57:26.042Z,36.47
2023-01-01T23:59:53.360Z,31.50
